Main page
METAR-TAF:

METAR-TAF

Airports :

Lynden Pindling International Airport

Nassau, The Bahamas

latitude: 25-03N, longitude: 077-28W, elevation: 3 m

Current weather observation

The report was made 39 minutes ago, at 03:00 UTC
Wind 17 kt from the Southeast
Temperature 26°C
Humidity 94%
Pressure 1014 hPa
Visibility 10 km or more
Scattered clouds at a height of 1500 ft
Overcast at a height of 12000 ft

METAR: MYNN 270300Z 14017KT 9999 SCT015 OVC120 26/25 A2993

Time: 23:39 (03:39 UTC)

Forecast

The report was made 4 hours and 39 minutes ago, at 23:00 UTC
Forecast valid from 27 at 00 UTC to 27 at 24 UTC
Wind 10 kt from the Southeast
Visibility: 9000 m
Few clouds at a height of 1800 ft, Cumulonimbus.
Broken clouds at a height of 2000 ft
Broken clouds at a height of 12000 ft
rain

TAF: MYNN 262300Z 2700/2724 13010KT 9000 RA FEW018CB BKN020 BKN120

Weather observations and forecasts of more than 4000 airports (METAR and TAF reports).

The available stations are represented by yellow and red dots on the map.

Hover mouse over dot to see the name of the station.

Then click to see weather observations and forecasts.

To change the map : click on the green buttons with a black cross to zoom in, on the green button with a dash to zoom out, or on the green arrows for adjacent maps.


METAR-TAF: